createdAt,value
2019-06-07T00:01:02.527Z,15.20
2019-06-07T00:04:09.908Z,15.10
2019-06-07T00:07:15.011Z,15.20
2019-06-07T00:10:35.819Z,15.30
2019-06-07T00:13:27.870Z,15.30
2019-06-07T00:16:32.894Z,15.40
2019-06-07T00:19:37.834Z,15.50
2019-06-07T00:22:43.315Z,15.60
2019-06-07T00:25:48.332Z,15.60
2019-06-07T00:28:53.357Z,15.70
2019-06-07T00:31:58.391Z,15.80
2019-06-07T00:35:03.457Z,15.80
2019-06-07T00:38:09.382Z,15.70
2019-06-07T00:41:15.118Z,15.70
2019-06-07T00:44:23.059Z,15.80
2019-06-07T00:47:27.498Z,15.80
2019-06-07T00:50:32.845Z,15.70
2019-06-07T00:53:37.943Z,15.60
2019-06-07T00:56:42.979Z,15.40
2019-06-07T00:59:48.103Z,15.30
2019-06-07T01:02:53.211Z,15.20
2019-06-07T01:05:58.246Z,15.20
2019-06-07T01:09:04.346Z,15.20
2019-06-07T01:12:09.362Z,15.20
2019-06-07T01:15:17.673Z,15.20
2019-06-07T01:18:43.575Z,15.20
2019-06-07T01:21:30.110Z,15.20
2019-06-07T01:24:35.298Z,15.30
2019-06-07T01:27:40.419Z,15.40
2019-06-07T01:30:45.462Z,15.50
2019-06-07T01:33:51.449Z,15.50
2019-06-07T01:36:56.646Z,15.50
2019-06-07T01:40:01.714Z,15.50
2019-06-07T01:43:06.831Z,15.50
2019-06-07T01:46:12.043Z,15.60
2019-06-07T01:49:17.186Z,15.60
2019-06-07T01:52:23.540Z,15.70
2019-06-07T01:55:32.633Z,15.60
2019-06-07T01:58:35.802Z,15.60
2019-06-07T02:01:40.983Z,15.60
2019-06-07T02:04:46.085Z,15.50
2019-06-07T02:07:51.563Z,15.50
2019-06-07T02:10:56.633Z,15.40
2019-06-07T02:14:01.617Z,15.40
2019-06-07T02:17:06.731Z,15.20
2019-06-07T02:20:11.943Z,15.20
2019-06-07T02:23:17.047Z,15.10
2019-06-07T02:26:22.969Z,15.10
2019-06-07T02:29:31.421Z,15.10
2019-06-07T02:32:37.094Z,15.10
2019-06-07T02:35:41.516Z,15.10
2019-06-07T02:38:46.491Z,15.20
2019-06-07T02:41:51.528Z,15.30
2019-06-07T02:44:56.709Z,15.30
2019-06-07T02:48:02.105Z,15.30
2019-06-07T02:51:07.180Z,15.20
2019-06-07T02:54:12.292Z,15.20
2019-06-07T02:57:17.413Z,15.20
2019-06-07T03:01:06.110Z,15.10
2019-06-07T03:03:51.087Z,15.10
2019-06-07T03:06:57.466Z,15.00
2019-06-07T03:10:03.663Z,14.90
2019-06-07T03:13:11.241Z,14.90
2019-06-07T03:16:21.044Z,14.90
2019-06-07T03:19:36.492Z,14.90
2019-06-07T03:22:42.361Z,14.90
2019-06-07T03:25:50.311Z,14.90
2019-06-07T03:28:56.709Z,14.90
2019-06-07T03:32:01.798Z,14.90
2019-06-07T03:35:07.059Z,14.90
2019-06-07T03:38:12.007Z,14.90
2019-06-07T03:41:17.153Z,15.00
2019-06-07T03:44:22.187Z,15.10
2019-06-07T03:47:30.563Z,15.20
2019-06-07T03:50:38.249Z,15.20
2019-06-07T03:53:40.981Z,15.30
2019-06-07T03:56:46.118Z,15.30
2019-06-07T03:59:51.090Z,15.40
2019-06-07T04:02:56.213Z,15.30
2019-06-07T04:06:01.332Z,15.30
2019-06-07T04:09:07.348Z,15.30
2019-06-07T04:12:12.331Z,15.30
2019-06-07T04:15:17.812Z,15.50
2019-06-07T04:18:22.777Z,15.40
2019-06-07T04:21:29.750Z,15.50
2019-06-07T04:24:38.494Z,15.50
2019-06-07T04:27:41.429Z,15.50
2019-06-07T04:30:46.982Z,15.50
2019-06-07T04:33:52.019Z,15.50
2019-06-07T04:36:59.700Z,15.50
2019-06-07T04:40:05.358Z,15.50
2019-06-07T04:43:10.782Z,15.60
2019-06-07T04:46:17.782Z,15.80
2019-06-07T04:49:25.031Z,15.80
2019-06-07T04:52:32.501Z,15.80
2019-06-07T04:55:39.865Z,15.80
2019-06-07T04:58:43.884Z,15.90
2019-06-07T05:01:48.965Z,16.00
2019-06-07T05:04:53.989Z,16.10
2019-06-07T05:08:07.138Z,16.20
2019-06-07T05:11:06.194Z,16.30
2019-06-07T05:14:11.357Z,16.30
2019-06-07T05:17:16.355Z,16.40
2019-06-07T05:20:21.403Z,16.30
2019-06-07T05:24:03.485Z,16.20
2019-06-07T05:26:35.908Z,16.20
2019-06-07T05:29:41.640Z,16.20
2019-06-07T05:32:46.994Z,16.10
2019-06-07T05:35:52.010Z,16.00
2019-06-07T05:38:57.171Z,15.90
2019-06-07T05:42:02.151Z,16.00
2019-06-07T05:45:09.012Z,16.00
2019-06-07T05:48:14.133Z,16.10
2019-06-07T05:51:19.358Z,16.10
2019-06-07T05:54:43.164Z,16.10
2019-06-07T05:57:51.003Z,16.20
2019-06-07T06:01:40.999Z,16.30
2019-06-07T06:04:06.923Z,16.40
2019-06-07T06:07:11.958Z,16.40
2019-06-07T06:10:17.449Z,16.30
2019-06-07T06:13:22.523Z,16.40
2019-06-07T06:16:27.915Z,16.50
2019-06-07T06:19:32.947Z,16.60
2019-06-07T06:22:43.512Z,16.80
2019-06-07T06:25:53.703Z,17.00
2019-06-07T06:28:52.350Z,17.10
2019-06-07T06:32:42.165Z,17.20
2019-06-07T06:35:04.980Z,17.20
2019-06-07T06:38:10.079Z,17.20
2019-06-07T06:41:16.711Z,17.20
2019-06-07T06:44:22.010Z,17.30
2019-06-07T06:47:30.409Z,17.50
2019-06-07T06:50:35.550Z,17.60
2019-06-07T06:53:42.214Z,17.70
2019-06-07T06:56:49.687Z,17.80
2019-06-07T06:59:56.706Z,17.80
2019-06-07T07:03:47.664Z,17.80
2019-06-07T07:06:25.202Z,17.80
2019-06-07T07:09:16.407Z,17.90
2019-06-07T07:12:21.807Z,17.90
2019-06-07T07:15:26.864Z,17.90
2019-06-07T07:18:32.407Z,18.10
2019-06-07T07:21:37.658Z,18.20
2019-06-07T07:24:44.382Z,18.30
2019-06-07T07:27:53.479Z,18.40
2019-06-07T07:30:57.298Z,18.50
2019-06-07T07:37:09.622Z,18.60
2019-06-07T07:40:56.071Z,18.70
2019-06-07T07:43:21.770Z,18.90
2019-06-07T07:46:29.582Z,19.10
2019-06-07T07:49:33.683Z,19.10
2019-06-07T07:52:38.932Z,19.10
2019-06-07T07:55:45.084Z,19.10
2019-06-07T07:58:55.028Z,19.20
2019-06-07T08:01:58.727Z,19.20
2019-06-07T08:05:20.962Z,19.30
2019-06-07T08:08:11.395Z,19.30
2019-06-07T08:11:16.655Z,19.40
2019-06-07T08:14:21.876Z,19.50
2019-06-07T08:17:26.955Z,19.60
2019-06-07T08:20:32.151Z,19.70
2019-06-07T08:23:37.255Z,19.90
2019-06-07T08:26:42.382Z,20.00
2019-06-07T08:30:03.827Z,20.10
2019-06-07T08:33:01.490Z,20.20
2019-06-07T08:36:19.473Z,20.20
2019-06-07T08:39:09.023Z,20.20
2019-06-07T08:42:21.290Z,20.30
2019-06-07T08:45:21.410Z,20.30
2019-06-07T08:48:28.346Z,20.40
2019-06-07T08:51:33.570Z,20.40
2019-06-07T08:54:38.578Z,20.50
2019-06-07T08:57:43.792Z,20.70
2019-06-07T09:00:48.946Z,20.90
2019-06-07T09:03:59.504Z,21.00
2019-06-07T09:07:10.431Z,21.10
2019-06-07T09:10:13.925Z,21.10
2019-06-07T09:13:15.184Z,21.20
2019-06-07T09:16:20.674Z,21.40
2019-06-07T09:19:25.713Z,21.40
2019-06-07T09:22:31.003Z,21.50
2019-06-07T09:25:55.811Z,21.60
2019-06-07T09:28:43.183Z,21.70
2019-06-07T09:31:53.114Z,21.70
2019-06-07T09:35:03.862Z,21.90
2019-06-07T09:38:14.276Z,22.00
2019-06-07T09:41:09.865Z,22.20
2019-06-07T09:44:24.642Z,22.30
2019-06-07T09:47:31.698Z,22.30
2019-06-07T09:50:28.866Z,22.30
2019-06-07T09:53:34.067Z,22.50
2019-06-07T09:56:39.563Z,22.60
2019-06-07T09:59:44.504Z,22.80
2019-06-07T10:02:49.837Z,22.90
2019-06-07T10:05:54.990Z,23.00
2019-06-07T10:10:08.194Z,23.10
2019-06-07T10:12:08.604Z,23.20
2019-06-07T10:15:14.454Z,23.30
2019-06-07T10:18:20.079Z,23.40
2019-06-07T10:21:25.321Z,23.50
2019-06-07T10:24:30.618Z,23.50
2019-06-07T10:27:35.823Z,23.50
2019-06-07T10:30:41.149Z,23.50
2019-06-07T10:33:46.299Z,23.70
2019-06-07T10:36:51.428Z,23.80
2019-06-07T10:39:56.875Z,23.90
2019-06-07T10:43:13.979Z,24.00
2019-06-07T10:46:16.198Z,24.00
2019-06-07T10:49:21.542Z,24.10
2019-06-07T10:52:26.559Z,24.10
2019-06-07T10:55:31.974Z,24.20
2019-06-07T10:58:37.076Z,24.30
2019-06-07T11:01:46.290Z,24.30
2019-06-07T11:04:51.455Z,24.30
2019-06-07T11:08:01.344Z,24.40
2019-06-07T11:11:06.583Z,24.50
2019-06-07T11:14:12.738Z,24.50
2019-06-07T11:17:20.799Z,24.60
2019-06-07T11:20:26.918Z,24.60
2019-06-07T11:23:33.871Z,24.60
2019-06-07T11:26:41.412Z,24.70
2019-06-07T11:29:46.576Z,24.70
2019-06-07T11:32:52.744Z,24.80
2019-06-07T11:35:57.786Z,24.90
2019-06-07T11:39:04.810Z,24.90
2019-06-07T11:42:09.980Z,25.10
2019-06-07T11:45:18.088Z,25.10
2019-06-07T11:48:23.172Z,25.30
2019-06-07T11:51:31.738Z,25.40
2019-06-07T11:54:43.187Z,25.40
2019-06-07T11:57:49.259Z,25.40
2019-06-07T12:00:59.794Z,25.50
2019-06-07T12:04:04.910Z,25.50
2019-06-07T12:07:13.599Z,25.60
2019-06-07T12:10:22.406Z,25.60
2019-06-07T12:13:27.011Z,25.70
2019-06-07T12:16:32.431Z,25.70
2019-06-07T12:19:37.621Z,25.70
2019-06-07T12:22:44.427Z,25.70
2019-06-07T12:25:49.576Z,25.70
2019-06-07T12:28:54.819Z,25.80
2019-06-07T12:32:01.571Z,25.80
2019-06-07T12:35:11.505Z,25.80
2019-06-07T12:38:18.894Z,25.90
2019-06-07T12:41:26.948Z,26.00
2019-06-07T12:44:38.455Z,26.10
2019-06-07T12:47:43.593Z,26.20
2019-06-07T12:50:48.831Z,26.20
2019-06-07T12:53:53.934Z,26.20
2019-06-07T12:57:03.359Z,26.20
2019-06-07T13:00:16.094Z,26.10
2019-06-07T13:03:22.492Z,26.10
2019-06-07T13:06:30.221Z,26.40
2019-06-07T13:09:36.297Z,26.50
2019-06-07T13:12:49.250Z,26.70
2019-06-07T13:15:54.385Z,26.80
2019-06-07T13:19:00.432Z,26.90
2019-06-07T13:22:05.621Z,27.00
2019-06-07T13:25:13.217Z,27.30
2019-06-07T13:28:18.997Z,27.40
2019-06-07T13:31:25.272Z,27.60
2019-06-07T13:34:33.572Z,27.90
2019-06-07T13:37:39.122Z,28.10
2019-06-07T13:40:47.470Z,28.20
2019-06-07T13:43:52.506Z,28.30
2019-06-07T13:46:57.537Z,28.50
2019-06-07T13:50:05.363Z,28.60
2019-06-07T13:53:10.421Z,28.70
2019-06-07T13:56:15.688Z,28.90
2019-06-07T13:59:20.692Z,29.00
2019-06-07T14:02:26.193Z,29.10
2019-06-07T14:05:32.691Z,29.10
2019-06-07T14:08:37.993Z,29.30
2019-06-07T14:11:50.358Z,29.40
2019-06-07T14:14:49.645Z,29.40
2019-06-07T14:17:54.829Z,29.50
2019-06-07T14:21:00.008Z,29.60
2019-06-07T14:24:05.229Z,29.70
2019-06-07T14:27:14.115Z,29.80
2019-06-07T14:30:24.043Z,29.90
2019-06-07T14:33:32.481Z,30.00
2019-06-07T14:36:37.802Z,30.10
2019-06-07T14:39:43.300Z,30.30
2019-06-07T14:42:48.391Z,30.40
2019-06-07T14:45:53.441Z,30.50
2019-06-07T14:48:58.810Z,30.50
2019-06-07T14:52:04.070Z,30.60
2019-06-07T14:55:11.451Z,30.80
2019-06-07T14:58:18.013Z,31.00
2019-06-07T15:01:26.346Z,31.20
2019-06-07T15:04:32.533Z,31.30
2019-06-07T15:07:40.631Z,31.30
2019-06-07T15:10:45.976Z,31.40
2019-06-07T15:13:51.128Z,31.50
2019-06-07T15:16:56.296Z,31.50
2019-06-07T15:20:13.451Z,31.70
2019-06-07T15:23:47.209Z,32.00
2019-06-07T15:26:59.921Z,32.10
2019-06-07T15:30:10.524Z,32.20
2019-06-07T15:33:15.861Z,32.20
2019-06-07T15:36:20.939Z,32.30
2019-06-07T15:39:26.062Z,32.40
2019-06-07T15:42:48.090Z,32.50
2019-06-07T15:45:39.764Z,32.40
2019-06-07T15:48:44.874Z,32.40
2019-06-07T15:51:51.236Z,32.50
2019-06-07T15:54:56.226Z,32.60
2019-06-07T15:58:01.350Z,32.60
2019-06-07T16:01:06.468Z,32.60
2019-06-07T16:04:11.627Z,32.70
2019-06-07T16:07:16.728Z,32.80
2019-06-07T16:10:21.873Z,32.80
2019-06-07T16:13:26.987Z,32.60
2019-06-07T16:16:32.766Z,32.60
2019-06-07T16:19:42.852Z,32.50
2019-06-07T16:22:45.011Z,32.30
2019-06-07T16:25:50.151Z,31.90
2019-06-07T16:28:57.246Z,31.50
2019-06-07T16:32:02.039Z,31.10
2019-06-07T16:35:07.470Z,30.70
2019-06-07T16:38:12.513Z,30.30
2019-06-07T16:41:17.628Z,30.00
2019-06-07T16:44:22.654Z,29.90
2019-06-07T16:47:27.634Z,29.70
2019-06-07T16:50:32.664Z,29.50
2019-06-07T16:53:38.189Z,29.40
2019-06-07T16:56:47.354Z,29.20
2019-06-07T16:59:50.942Z,29.10
2019-06-07T17:02:56.182Z,29.00
2019-06-07T17:06:01.299Z,28.90
2019-06-07T17:09:08.496Z,28.80
2019-06-07T17:12:13.625Z,28.70
2019-06-07T17:15:19.356Z,28.60
2019-06-07T17:18:24.526Z,28.60
2019-06-07T17:21:29.667Z,28.50
2019-06-07T17:24:34.700Z,28.50
2019-06-07T17:27:39.838Z,28.40
2019-06-07T17:30:46.111Z,28.30
2019-06-07T17:33:51.193Z,28.30
2019-06-07T17:36:56.299Z,28.20
2019-06-07T17:40:01.436Z,28.20
2019-06-07T17:43:06.561Z,28.10
2019-06-07T17:46:11.594Z,28.10
2019-06-07T17:49:16.625Z,27.90
2019-06-07T17:52:21.595Z,27.90
2019-06-07T17:55:26.545Z,27.80
2019-06-07T17:58:31.655Z,27.70
2019-06-07T18:01:41.429Z,27.70
2019-06-07T18:04:43.406Z,27.60
2019-06-07T18:07:50.103Z,27.60
2019-06-07T18:10:55.206Z,27.60
2019-06-07T18:14:10.141Z,27.50
2019-06-07T18:17:06.920Z,27.50
2019-06-07T18:20:12.029Z,27.40
2019-06-07T18:23:17.110Z,27.30
2019-06-07T18:26:22.154Z,27.30
2019-06-07T18:29:27.201Z,27.20
2019-06-07T18:32:32.152Z,27.10
2019-06-07T18:35:37.191Z,27.00
2019-06-07T18:38:42.161Z,26.90
2019-06-07T18:41:49.538Z,26.90
2019-06-07T18:44:55.186Z,26.80
2019-06-07T18:48:00.493Z,26.70
2019-06-07T18:51:08.154Z,26.70
2019-06-07T18:54:12.418Z,26.70
2019-06-07T18:57:17.511Z,26.70
2019-06-07T19:00:23.373Z,26.80
2019-06-07T19:03:28.401Z,26.70
2019-06-07T19:06:45.052Z,26.70
2019-06-07T19:09:50.596Z,26.80
2019-06-07T19:12:57.280Z,26.70
2019-06-07T19:16:04.547Z,26.80
2019-06-07T19:19:17.802Z,26.70
2019-06-07T19:22:19.433Z,26.80
2019-06-07T19:25:24.466Z,26.70
2019-06-07T19:28:29.530Z,26.70
2019-06-07T19:31:38.619Z,26.70
2019-06-07T19:34:44.701Z,26.70
2019-06-07T19:37:49.736Z,26.70
2019-06-07T19:40:55.906Z,26.50
2019-06-07T19:44:00.987Z,26.30
2019-06-07T19:47:06.099Z,26.10
2019-06-07T19:50:11.520Z,25.90
2019-06-07T19:53:16.572Z,25.80
2019-06-07T19:56:21.590Z,25.60
2019-06-07T19:59:26.651Z,25.10
2019-06-07T20:02:31.591Z,24.00
2019-06-07T20:05:36.558Z,23.10
2019-06-07T20:08:41.662Z,22.40
2019-06-07T20:11:46.789Z,21.50
2019-06-07T20:14:55.230Z,20.70
2019-06-07T20:17:59.220Z,20.20
2019-06-07T20:21:04.974Z,19.80
2019-06-07T20:24:24.866Z,19.60
2019-06-07T20:27:16.983Z,19.30
2019-06-07T20:30:22.158Z,19.00
2019-06-07T20:33:29.614Z,19.00
2019-06-07T20:36:34.739Z,18.90
2019-06-07T20:39:39.811Z,18.80
2019-06-07T20:42:44.894Z,18.60
2019-06-07T20:45:59.222Z,18.40
2019-06-07T20:49:04.861Z,18.40
2019-06-07T20:52:10.634Z,18.30
2019-06-07T20:55:19.912Z,18.20
2019-06-07T20:58:25.154Z,18.00
2019-06-07T21:01:30.347Z,17.90
2019-06-07T21:04:35.513Z,17.90
2019-06-07T21:07:40.606Z,17.90
2019-06-07T21:10:47.414Z,17.90
2019-06-07T21:13:52.497Z,17.90
2019-06-07T21:16:57.739Z,17.90
2019-06-07T21:20:03.182Z,17.80
2019-06-07T21:23:11.871Z,17.70
2019-06-07T21:26:16.307Z,17.70
2019-06-07T21:29:24.993Z,17.70
2019-06-07T21:32:30.164Z,17.70
2019-06-07T21:35:35.636Z,17.50
2019-06-07T21:38:40.890Z,17.50
2019-06-07T21:41:45.835Z,17.50
2019-06-07T21:44:53.634Z,17.50
2019-06-07T21:48:05.224Z,17.60
2019-06-07T21:51:10.985Z,17.60
2019-06-07T21:54:16.119Z,17.80
2019-06-07T21:57:21.158Z,17.80
2019-06-07T22:01:16.963Z,17.80
2019-06-07T22:04:22.007Z,17.70
2019-06-07T22:07:26.975Z,17.50
2019-06-07T22:10:33.238Z,17.30
2019-06-07T22:13:38.315Z,17.20
2019-06-07T22:16:43.265Z,17.20
2019-06-07T22:19:48.308Z,17.00
2019-06-07T22:22:53.314Z,17.00
2019-06-07T22:25:59.666Z,17.00
2019-06-07T22:29:06.499Z,17.20
2019-06-07T22:32:12.859Z,17.20
2019-06-07T22:35:19.366Z,17.30
2019-06-07T22:38:24.562Z,17.10
2019-06-07T22:41:29.587Z,17.00
2019-06-07T22:44:34.628Z,17.10
2019-06-07T22:47:42.668Z,17.10
2019-06-07T22:50:49.006Z,17.20
2019-06-07T22:53:54.043Z,17.20
2019-06-07T22:57:07.885Z,17.30
2019-06-07T23:00:15.694Z,17.30
2019-06-07T23:03:19.813Z,17.50
2019-06-07T23:06:24.907Z,17.40
2019-06-07T23:09:32.830Z,17.50
2019-06-07T23:12:40.942Z,17.40
2019-06-07T23:15:46.068Z,17.40
2019-06-07T23:18:52.737Z,17.40
2019-06-07T23:21:57.774Z,17.50
2019-06-07T23:25:02.819Z,17.50
2019-06-07T23:28:10.267Z,17.50
2019-06-07T23:31:16.480Z,17.50
2019-06-07T23:34:21.833Z,17.50
2019-06-07T23:37:26.801Z,17.50
2019-06-07T23:40:31.922Z,17.50
2019-06-07T23:43:36.952Z,17.50
2019-06-07T23:46:41.954Z,17.50
2019-06-07T23:49:46.940Z,17.40
2019-06-07T23:52:51.955Z,17.30
2019-06-07T23:55:57.006Z,17.30
2019-06-07T23:59:02.095Z,17.30
